Terminal Aerodrome Forecast
Issued by NWS

Home | Current Version | Previous Version | Text Only | Print | Product List | Glossary On
Versions: 1 2 3 4 5 6 7 8 9 10 11 12 13 14 15 16 17 18 19 20 21 22
671
FTUS44 KOHX 271721
TAFCKV
TAF
KCKV 271721Z 2718/2818 15004KT P6SM VCTS SCT050CB BKN100 BKN250
     FM280200 12003KT P6SM BKN250
     FM281000 10002KT 4SM BR SKC
     FM281400 13004KT P6SM SKC=

USA.gov is the U.S. government's official web portal to all federal, state and local government web resources and services.